Time;durP1;ratioP1;P1;durP2;ratioP2;P2;SDS_P1;SDS_P2;PMS_P1;PMS_P2;Temp;Humidity;BMP_temperature;BMP_pressure;BME280_temperature;BME280_humidity;BME280_pressure;Samples;Min_cycle;Max_cycle;Signal;HPM_P1;HPM_P2
2023/03/09 00:05:25;;;;;;;2.20;2.00;;;9.70;99.90;;;;;;21003216;28;20208;-73
2023/03/09 00:15:26;;;;;;;2.20;2.00;;;9.70;99.90;;;;;;21001022;28;20627;-77
2023/03/09 00:25:28;;;;;;;2.93;2.60;;;9.70;99.90;;;;;;20999919;28;20228;-74
2023/03/09 00:35:34;;;;;;;3.33;2.83;;;9.70;99.90;;;;;;20998741;28;20239;-74
2023/03/09 00:45:35;;;;;;;4.57;3.90;;;9.70;99.90;;;;;;20998518;28;20357;-76
2023/03/09 00:55:37;;;;;;;5.87;4.40;;;;;;;;;;20997613;28;20227;-76
2023/03/09 01:05:40;;;;;;;5.33;3.53;;;9.90;99.90;;;;;;20997348;28;20256;-77
2023/03/09 01:15:42;;;;;;;3.10;2.10;;;10.10;99.90;;;;;;20996602;28;20283;-78
2023/03/09 01:25:44;;;;;;;1.83;1.63;;;10.10;99.90;;;;;;20996310;28;20304;-79
2023/03/09 01:35:46;;;;;;;1.43;0.93;;;10.00;99.90;;;;;;20995430;28;20247;-78
2023/03/09 01:45:47;;;;;;;1.03;0.80;;;10.00;99.90;;;;;;20995836;28;20210;-77
2023/03/09 01:55:52;;;;;;;0.93;0.67;;;10.00;99.90;;;;;;20994857;28;20229;-78
2023/03/09 02:06:14;;;;;;;0.80;0.70;;;9.90;99.90;;;;;;20994752;28;20215;-77
2023/03/09 02:16:16;;;;;;;4.20;0.80;;;9.90;99.90;;;;;;20994641;28;20234;-78
2023/03/09 02:26:27;;;;;;;0.60;0.50;;;9.90;99.90;;;;;;21000867;28;20662;-78
2023/03/09 02:36:28;;;;;;;1.47;0.53;;;9.90;99.90;;;;;;21008158;28;20239;-78
2023/03/09 02:46:30;;;;;;;0.70;0.70;;;9.80;99.90;;;;;;21008137;28;20269;-78
2023/03/09 02:56:32;;;;;;;0.63;0.60;;;9.90;99.90;;;;;;21007268;28;20238;-75
2023/03/09 03:06:33;;;;;;;1.03;0.60;;;9.90;99.90;;;;;;21006192;28;20216;-76
2023/03/09 03:16:36;;;;;;;0.70;0.70;;;;;;;;;;21005610;28;20239;-76
2023/03/09 03:26:38;;;;;;;0.70;0.70;;;;;;;;;;21004490;28;20214;-76
2023/03/09 03:36:39;;;;;;;2.17;0.80;;;9.70;99.90;;;;;;21004036;28;20627;-77
2023/03/09 03:56:45;;;;;;;0.87;0.70;;;;;;;;;;21152567;27;20499;-75
2023/03/09 04:06:48;;;;;;;1.03;0.60;;;;;;;;;;21071208;28;20680;-78
2023/03/09 04:16:50;;;;;;;1.47;0.70;;;;;;;;;;21089811;28;20213;-78
2023/03/09 04:26:51;;;;;;;1.23;0.60;;;9.60;99.90;;;;;;21069126;28;20220;-78
2023/03/09 04:36:55;;;;;;;0.60;0.60;;;9.60;99.90;;;;;;21050718;28;20545;-77
2023/03/09 04:46:57;;;;;;;0.77;0.70;;;9.60;99.90;;;;;;21064763;28;20234;-77
2023/03/09 04:56:59;;;;;;;0.70;0.70;;;;;;;;;;20981477;28;20219;-77
2023/03/09 05:07:01;;;;;;;1.07;0.90;;;;;;;;;;20934045;28;20258;-77
2023/03/09 05:17:03;;;;;;;1.73;1.50;;;9.90;99.90;;;;;;20925400;28;20260;-77
2023/03/09 05:27:05;;;;;;;1.07;0.90;;;;;;;;;;20922677;28;20209;-77
2023/03/09 05:37:08;;;;;;;1.80;1.00;;;;;;;;;;20921699;28;20219;-74
2023/03/09 05:47:10;;;;;;;1.30;1.10;;;10.00;99.90;;;;;;20921244;28;20233;-78
2023/03/09 05:57:12;;;;;;;4.17;1.60;;;10.10;99.90;;;;;;20920617;28;20685;-76
2023/03/09 06:07:14;;;;;;;3.33;1.53;;;10.10;99.90;;;;;;20918077;28;20640;-73
2023/03/09 06:17:16;;;;;;;4.60;1.50;;;10.20;99.90;;;;;;20918045;28;20202;-73
2023/03/09 06:27:18;;;;;;;4.23;1.60;;;;;;;;;;20917656;28;20237;-77
2023/03/09 06:37:20;;;;;;;4.20;2.00;;;10.30;99.90;;;;;;20916416;28;20263;-78
2023/03/09 06:47:23;;;;;;;3.90;1.57;;;;;;;;;;20881087;28;20239;-74
2023/03/09 06:57:24;;;;;;;5.23;1.80;;;9.40;99.90;;;;;;20832132;28;20211;-74
2023/03/09 07:07:26;;;;;;;5.03;1.97;;;10.50;99.90;;;;;;20831422;28;20232;-73
2023/03/09 07:17:28;;;;;;;5.67;1.90;;;;;;;;;;20830992;28;20271;-72
2023/03/09 07:27:30;;;;;;;2.97;2.00;;;10.70;99.90;;;;;;20830076;28;20235;-73
2023/03/09 07:37:32;;;;;;;6.07;1.90;;;;;;;;;;20830379;28;20215;-71
2023/03/09 07:55:55;;;;;;;7.40;2.13;;;10.70;99.90;;;;;;21495367;27;21181;-74
2023/03/09 08:06:00;;;;;;;6.30;1.57;;;10.80;99.90;;;;;;21407478;27;20616;-74
2023/03/09 08:16:06;;;;;;;5.60;1.63;;;10.80;99.90;;;;;;21407509;27;20215;-74
2023/03/09 08:26:11;;;;;;;7.73;1.90;;;;;;;;;;21412192;27;20206;-74
2023/03/09 08:36:16;;;;;;;5.40;1.40;;;11.30;99.90;;;;;;21407048;27;20207;-75
2023/03/09 08:46:18;;;;;;;3.40;1.33;;;11.60;99.90;;;;;;21404715;27;20235;-74
2023/03/09 08:56:19;;;;;;;5.17;1.30;;;11.60;99.90;;;;;;21403656;27;20202;-72
2023/03/09 09:06:21;;;;;;;2.63;1.10;;;;;;;;;;21349942;27;20236;-71
2023/03/09 09:25:56;;;;;;;1.63;1.10;;;11.80;99.60;;;;;;20983575;28;21081;-73
2023/03/09 09:36:03;;;;;;;2.43;1.30;;;11.80;99.30;;;;;;20982474;28;20324;-72
2023/03/09 09:46:09;;;;;;;1.37;1.10;;;11.80;99.40;;;;;;20982471;28;20216;-73
2023/03/09 09:56:19;;;;;;;1.40;1.00;;;11.70;99.70;;;;;;20981398;28;20229;-72
2023/03/09 10:06:25;;;;;;;1.10;1.00;;;11.80;99.90;;;;;;20980184;28;20207;-72
2023/03/09 10:16:30;;;;;;;10.93;7.60;;;11.70;99.90;;;;;;20979226;28;20244;-73
2023/03/09 10:26:46;;;;;;;2.37;1.30;;;11.60;99.90;;;;;;20978270;28;20231;-72
2023/03/09 10:36:58;;;;;;;2.17;1.20;;;11.50;99.90;;;;;;20925170;28;20238;-73
2023/03/09 10:47:01;;;;;;;2.17;1.27;;;11.50;99.90;;;;;;20922649;28;20278;-74
2023/03/09 10:57:22;;;;;;;3.73;1.07;;;11.50;99.90;;;;;;20921591;28;20251;-73
2023/03/09 11:07:29;;;;;;;2.50;1.30;;;11.80;99.90;;;;;;20920889;28;20272;-73
2023/03/09 11:17:48;;;;;;;5.00;1.90;;;12.00;99.90;;;;;;20920301;28;20255;-74
2023/03/09 11:27:55;;;;;;;3.33;1.60;;;12.30;99.90;;;;;;20919371;28;20220;-74
2023/03/09 11:38:02;;;;;;;5.33;1.73;;;12.40;99.80;;;;;;20918776;28;20246;-74
2023/03/09 11:48:22;;;;;;;5.00;1.50;;;12.60;99.00;;;;;;20917284;28;20215;-73
2023/03/09 11:58:35;;;;;;;2.73;1.37;;;;;;;;;;20916839;28;20330;-73
2023/03/09 12:08:43;;;;;;;4.73;1.43;;;13.00;98.30;;;;;;20915936;28;20550;-74
2023/03/09 12:19:00;;;;;;;5.10;1.40;;;13.10;97.90;;;;;;20914419;28;20273;-73
2023/03/09 12:29:22;;;;;;;2.17;1.10;;;13.00;97.80;;;;;;20914688;28;20205;-74
2023/03/09 12:39:24;;;;;;;4.07;1.73;;;13.20;97.70;;;;;;20914496;28;20242;-73
2023/03/09 12:49:30;;;;;;;2.33;1.10;;;13.10;97.30;;;;;;20922352;28;20210;-73
2023/03/09 12:59:32;;;;;;;2.23;1.23;;;13.00;97.30;;;;;;20912863;28;20293;-73
2023/03/09 13:09:42;;;;;;;2.13;1.00;;;13.00;97.20;;;;;;20912417;28;20239;-73
2023/03/09 13:19:50;;;;;;;18.67;1.57;;;12.90;97.20;;;;;;20911626;28;20242;-75
2023/03/09 13:30:02;;;;;;;5.07;1.47;;;13.00;96.80;;;;;;20910701;28;20230;-74
2023/03/09 13:40:33;;;;;;;6.23;1.77;;;13.50;95.80;;;;;;20910854;28;20704;-74
2023/03/09 13:50:36;;;;;;;2.97;1.40;;;13.50;95.00;;;;;;20909939;28;20204;-74
2023/03/09 14:00:37;;;;;;;4.30;1.53;;;13.20;95.00;;;;;;20910028;28;20236;-74
2023/03/09 14:10:40;;;;;;;6.00;1.53;;;13.20;95.50;;;;;;20921655;28;20270;-74
2023/03/09 14:20:46;;;;;;;3.23;1.30;;;13.70;95.60;;;;;;20924341;28;20244;-74
2023/03/09 14:30:48;;;;;;;3.50;0.93;;;14.50;94.70;;;;;;20924117;28;20210;-75
2023/03/09 14:41:18;;;;;;;2.27;1.07;;;14.70;94.90;;;;;;20922822;28;20240;-75
2023/03/09 14:51:31;;;;;;;3.73;0.90;;;14.90;93.00;;;;;;20921854;28;20253;-73
2023/03/09 15:01:33;;;;;;;4.17;1.27;;;13.80;94.40;;;;;;20921915;28;20235;-73
2023/03/09 15:11:37;;;;;;;2.57;1.50;;;13.50;95.10;;;;;;20920297;28;20209;-73
2023/03/09 15:21:39;;;;;;;2.33;1.30;;;;;;;;;;20919398;28;20252;-73
2023/03/09 15:31:41;;;;;;;4.27;1.47;;;16.00;93.20;;;;;;20898404;28;20225;-71
2023/03/09 15:41:44;;;;;;;4.30;1.30;;;15.70;91.90;;;;;;20870428;28;20254;-76
2023/03/09 15:51:45;;;;;;;4.87;1.60;;;14.60;92.40;;;;;;20835445;28;20628;-76
2023/03/09 16:01:51;;;;;;;6.37;1.73;;;13.70;93.20;;;;;;20834562;28;20239;-75
2023/03/09 16:11:53;;;;;;;5.22;1.90;;;13.60;93.90;;;;;;20832475;28;20433;-73
2023/03/09 16:21:54;;;;;;;3.93;1.40;;;13.20;94.10;;;;;;20832603;28;20320;-74
2023/03/09 16:31:56;;;;;;;5.03;1.60;;;13.10;94.10;;;;;;20846980;28;20214;-72
2023/03/09 16:41:58;;;;;;;5.83;1.90;;;13.00;94.40;;;;;;20831287;28;20233;-74
2023/03/09 16:52:01;;;;;;;9.53;2.50;;;13.20;94.90;;;;;;20827637;28;20433;-72
2023/03/09 17:02:03;;;;;;;6.17;2.17;;;12.80;95.10;;;;;;20832923;28;20232;-74
2023/03/09 17:12:05;;;;;;;7.10;2.13;;;12.50;95.40;;;;;;20836982;28;20218;-73
2023/03/09 17:22:06;;;;;;;7.43;2.27;;;12.30;95.90;;;;;;20832022;28;20241;-86
2023/03/09 17:32:08;;;;;;;12.93;2.90;;;12.30;96.10;;;;;;20830384;28;20621;-74
2023/03/09 17:42:10;;;;;;;9.00;2.30;;;12.30;96.30;;;;;;20837706;28;20235;-81
2023/03/09 17:52:12;;;;;;;8.77;2.53;;;12.30;96.50;;;;;;20845282;28;20389;-74
2023/03/09 18:02:14;;;;;;;8.57;2.53;;;12.20;96.50;;;;;;20845355;28;20299;-76
2023/03/09 18:12:16;;;;;;;11.53;2.40;;;12.20;96.60;;;;;;20846138;28;20232;-74
2023/03/09 18:22:18;;;;;;;6.90;2.17;;;12.30;96.70;;;;;;20860278;28;20237;-72
2023/03/09 18:42:04;;;;;;;9.67;2.53;;;12.20;96.80;;;;;;21100535;28;20559;-74
2023/03/09 18:52:06;;;;;;;10.43;2.93;;;12.00;96.80;;;;;;21064863;28;20569;-72
2023/03/09 19:02:11;;;;;;;7.73;2.40;;;11.80;97.00;;;;;;21064515;28;20220;-73
2023/03/09 19:12:13;;;;;;;5.80;2.30;;;;;;;;;;21063403;28;20540;-72
2023/03/09 19:22:15;;;;;;;6.00;1.90;;;11.70;97.10;;;;;;21087816;28;20665;-74
2023/03/09 19:32:17;;;;;;;9.97;2.13;;;;;;;;;;21122532;28;20201;-72
2023/03/09 19:42:18;;;;;;;7.30;2.50;;;11.40;97.10;;;;;;21076112;28;20219;-72
2023/03/09 19:52:21;;;;;;;8.40;2.60;;;11.30;97.10;;;;;;21024390;28;20691;-72
2023/03/09 20:02:23;;;;;;;12.17;3.23;;;;;;;;;;21087611;28;20210;-74
2023/03/09 20:12:25;;;;;;;9.23;2.83;;;11.10;97.30;;;;;;21025266;28;20657;-72
2023/03/09 20:22:27;;;;;;;8.23;3.07;;;11.20;97.40;;;;;;21087932;28;20214;-73
2023/03/09 20:32:28;;;;;;;9.97;3.20;;;11.00;97.60;;;;;;21001125;28;20246;-74
2023/03/09 20:42:30;;;;;;;11.00;3.07;;;10.90;97.80;;;;;;20935953;28;20265;-73
2023/03/09 20:52:33;;;;;;;11.97;2.97;;;10.80;97.90;;;;;;20919292;28;20230;-74
2023/03/09 21:02:35;;;;;;;10.07;3.10;;;10.60;98.10;;;;;;20917262;28;20215;-73
2023/03/09 21:12:37;;;;;;;8.30;3.00;;;;;;;;;;20920254;28;20228;-74
2023/03/09 21:22:38;;;;;;;9.87;3.30;;;10.40;98.30;;;;;;20921927;28;20550;-75
2023/03/09 21:32:40;;;;;;;8.70;3.13;;;10.40;98.30;;;;;;21043799;28;20243;-75
2023/03/09 21:42:43;;;;;;;12.17;2.80;;;;;;;;;;21082317;28;20318;-75
2023/03/09 21:52:44;;;;;;;9.07;3.13;;;10.40;98.20;;;;;;21080966;28;20241;-75
2023/03/09 22:02:46;;;;;;;8.80;3.00;;;10.60;98.20;;;;;;21042760;28;20278;-74
2023/03/09 22:12:48;;;;;;;7.50;2.90;;;10.50;98.00;;;;;;21067115;28;20271;-76
2023/03/09 22:22:52;;;;;;;6.97;2.50;;;;;;;;;;20995606;28;20270;-76
2023/03/09 22:32:53;;;;;;;7.93;2.40;;;10.60;97.50;;;;;;21005677;28;20238;-75
2023/03/09 22:42:55;;;;;;;10.90;3.63;;;10.60;97.20;;;;;;20928081;28;20691;-76
2023/03/09 22:52:57;;;;;;;9.13;3.07;;;10.50;97.00;;;;;;20911378;28;20238;-76
2023/03/09 23:02:58;;;;;;;8.83;3.17;;;10.50;96.80;;;;;;20911043;28;20213;-74
2023/03/09 23:13:00;;;;;;;10.60;4.27;;;10.40;96.90;;;;;;20912040;28;20241;-74
2023/03/09 23:23:02;;;;;;;9.67;3.10;;;10.40;96.90;;;;;;20917087;28;20229;-75
2023/03/09 23:33:03;;;;;;;11.67;3.70;;;10.30;96.90;;;;;;20923753;28;20596;-74
2023/03/09 23:52:28;;;;;;;10.33;2.80;;;10.30;96.90;;;;;;20984412;28;21104;-74
